Time;durP1;ratioP1;P1;durP2;ratioP2;P2;SDS_P1;SDS_P2;PMS_P1;PMS_P2;Temp;Humidity;BMP_temperature;BMP_pressure;BME280_temperature;BME280_humidity;BME280_pressure;Samples;Min_cycle;Max_cycle;Signal;HPM_P1;HPM_P2
2023/01/22 00:00:08;;;;;;;6.25;5.53;;;1.00;99.90;;;;;;4950609;28;20051;-70
2023/01/22 00:02:40;;;;;;;7.13;6.43;;;1.00;99.90;;;;;;4942786;28;20398;-71
2023/01/22 00:05:08;;;;;;;6.45;5.57;;;1.00;99.90;;;;;;4949659;28;20042;-69
2023/01/22 00:07:35;;;;;;;9.35;6.95;;;1.00;99.90;;;;;;4951512;28;20051;-71
2023/01/22 00:10:02;;;;;;;6.50;5.28;;;1.00;99.90;;;;;;4945673;28;20055;-69
2023/01/22 00:12:30;;;;;;;3.47;3.17;;;1.00;99.90;;;;;;4948724;28;20189;-68
2023/01/22 00:14:57;;;;;;;4.68;4.28;;;1.00;99.90;;;;;;4957040;28;20141;-65
2023/01/22 00:17:25;;;;;;;9.63;5.90;;;1.00;99.90;;;;;;4946387;28;20055;-67
2023/01/22 00:19:52;;;;;;;6.78;6.00;;;1.00;99.90;;;;;;4945922;28;20049;-74
2023/01/22 00:22:19;;;;;;;9.73;5.95;;;0.90;99.90;;;;;;4951132;28;20755;-68
2023/01/22 00:24:46;;;;;;;6.88;5.60;;;1.00;99.90;;;;;;4955564;28;20057;-69
2023/01/22 00:27:13;;;;;;;3.80;3.50;;;0.90;99.90;;;;;;4951844;28;20051;-72
2023/01/22 00:29:40;;;;;;;3.55;3.25;;;1.00;99.90;;;;;;4945895;28;20129;-70
2023/01/22 00:32:07;;;;;;;3.88;3.47;;;0.90;99.90;;;;;;4950727;28;20118;-72
2023/01/22 00:34:34;;;;;;;2.55;2.17;;;0.90;99.90;;;;;;4952492;28;20059;-68
2023/01/22 00:37:01;;;;;;;4.90;2.90;;;0.90;99.90;;;;;;4952324;28;20130;-68
2023/01/22 00:39:28;;;;;;;1.92;1.65;;;0.90;99.90;;;;;;4951840;28;20106;-69
2023/01/22 00:41:55;;;;;;;2.83;2.55;;;0.90;99.90;;;;;;4950380;28;20047;-68
2023/01/22 00:44:22;;;;;;;2.55;2.10;;;0.80;99.90;;;;;;4953148;28;20055;-71
2023/01/22 00:46:51;;;;;;;3.10;2.15;;;0.90;99.90;;;;;;4954167;28;20524;-71
2023/01/22 00:49:18;;;;;;;3.10;2.08;;;0.90;99.90;;;;;;4955110;28;20067;-71
2023/01/22 00:51:45;;;;;;;2.47;2.28;;;0.90;99.90;;;;;;4951418;28;20078;-68
2023/01/22 00:54:12;;;;;;;2.65;2.30;;;0.90;99.90;;;;;;4951908;28;20039;-70
2023/01/22 00:56:39;;;;;;;3.25;2.78;;;0.80;99.90;;;;;;4956050;28;20486;-69
2023/01/22 00:59:09;;;;;;;4.20;2.85;;;0.80;99.90;;;;;;4952763;28;20055;-69
2023/01/22 01:01:38;;;;;;;3.15;2.70;;;0.80;99.90;;;;;;4964686;28;20078;-74
2023/01/22 01:04:05;;;;;;;5.45;3.97;;;0.80;99.90;;;;;;4951408;28;20079;-72
2023/01/22 01:06:32;;;;;;;5.30;4.07;;;0.80;99.90;;;;;;4951618;28;20512;-71
2023/01/22 01:09:00;;;;;;;6.40;4.55;;;0.80;99.90;;;;;;4952422;28;20379;-68
2023/01/22 01:11:28;;;;;;;7.85;4.13;;;0.80;99.90;;;;;;4953336;28;20138;-67
2023/01/22 01:13:55;;;;;;;2.75;2.40;;;0.80;99.90;;;;;;4946970;28;20812;-67
2023/01/22 01:16:25;;;;;;;2.22;2.13;;;0.80;99.90;;;;;;4949833;28;20054;-69
2023/01/22 01:18:55;;;;;;;4.88;1.73;;;0.70;99.90;;;;;;4954280;28;20153;-68
2023/01/22 01:21:22;;;;;;;2.03;1.90;;;0.70;99.90;;;;;;4953190;28;20142;-67
2023/01/22 01:23:49;;;;;;;3.58;2.72;;;0.70;99.90;;;;;;4969348;28;20055;-70
2023/01/22 01:26:17;;;;;;;3.85;3.35;;;0.70;99.90;;;;;;4969325;28;20777;-69
2023/01/22 01:28:44;;;;;;;2.45;2.22;;;0.70;99.90;;;;;;4953915;28;20435;-72
2023/01/22 01:31:14;;;;;;;5.63;2.78;;;0.70;99.90;;;;;;4949050;28;20070;-71
2023/01/22 01:33:41;;;;;;;2.83;2.42;;;0.70;99.90;;;;;;4952109;28;20126;-70
2023/01/22 01:36:23;;;;;;;2.70;2.25;;;0.70;99.90;;;;;;4951493;28;20141;-71
2023/01/22 01:39:10;;;;;;;3.30;3.10;;;0.80;99.90;;;;;;4943600;28;20688;-71
2023/01/22 01:41:37;;;;;;;5.10;4.20;;;0.70;99.90;;;;;;4955578;28;20391;-70
2023/01/22 01:44:18;;;;;;;8.90;5.75;;;0.70;99.90;;;;;;4946372;28;20066;-74
2023/01/22 01:46:54;;;;;;;3.58;2.30;;;0.80;99.90;;;;;;4956961;28;20055;-69
2023/01/22 01:49:45;;;;;;;4.40;2.67;;;0.70;99.90;;;;;;4956909;28;20422;-68
2023/01/22 01:52:13;;;;;;;8.68;4.82;;;0.80;99.90;;;;;;4950866;28;20776;-69
2023/01/22 01:54:45;;;;;;;6.57;5.85;;;0.80;99.90;;;;;;4948922;28;20047;-67
2023/01/22 01:57:19;;;;;;;4.63;4.10;;;0.80;99.90;;;;;;4955984;28;20523;-69
2023/01/22 01:59:49;;;;;;;2.50;2.30;;;0.80;99.90;;;;;;4950975;28;20130;-69
2023/01/22 02:02:19;;;;;;;1.52;1.42;;;0.80;99.90;;;;;;4953331;28;20110;-68
2023/01/22 02:04:49;;;;;;;2.58;2.08;;;0.70;99.90;;;;;;4971006;28;20047;-68
2023/01/22 02:07:16;;;;;;;3.50;3.20;;;0.70;99.90;;;;;;4954532;28;20150;-67
2023/01/22 02:09:43;;;;;;;3.95;2.05;;;0.70;99.90;;;;;;4970605;28;20078;-70
2023/01/22 02:12:10;;;;;;;2.83;2.20;;;0.70;99.90;;;;;;4954507;28;20047;-75
2023/01/22 02:14:41;;;;;;;2.80;2.60;;;0.80;99.90;;;;;;4956236;28;20134;-68
2023/01/22 02:17:14;;;;;;;2.88;2.60;;;0.80;99.90;;;;;;4955182;28;20055;-71
2023/01/22 02:19:42;;;;;;;2.95;2.15;;;0.80;99.90;;;;;;4969562;28;20433;-68
2023/01/22 02:22:18;;;;;;;2.40;2.20;;;0.80;99.90;;;;;;4952223;28;20051;-70
2023/01/22 02:24:45;;;;;;;3.42;2.05;;;0.70;99.90;;;;;;4966628;28;20134;-67
2023/01/22 02:27:12;;;;;;;3.95;2.30;;;0.70;99.90;;;;;;4947025;28;20117;-70
2023/01/22 02:29:40;;;;;;;2.22;1.80;;;0.70;99.90;;;;;;4970263;28;20074;-70
2023/01/22 02:32:09;;;;;;;2.05;1.75;;;0.70;99.90;;;;;;4956794;28;20592;-72
2023/01/22 02:34:37;;;;;;;2.15;1.77;;;0.70;99.90;;;;;;4971456;28;20062;-72
2023/01/22 02:37:04;;;;;;;1.80;1.70;;;0.70;99.90;;;;;;4970962;28;20070;-70
2023/01/22 02:39:31;;;;;;;2.17;1.70;;;0.70;99.90;;;;;;4966523;28;20067;-70
2023/01/22 02:42:03;;;;;;;2.35;1.85;;;0.70;99.90;;;;;;4941559;28;20050;-71
2023/01/22 02:44:29;;;;;;;2.05;1.90;;;0.70;99.90;;;;;;4964909;28;20085;-71
2023/01/22 02:46:57;;;;;;;2.13;1.55;;;0.70;99.90;;;;;;4948749;28;20323;-69
2023/01/22 02:49:25;;;;;;;1.85;1.75;;;0.60;99.90;;;;;;4944753;28;20778;-67
2023/01/22 02:51:52;;;;;;;5.20;1.70;;;0.60;99.90;;;;;;4966861;28;20050;-67
2023/01/22 02:54:20;;;;;;;3.45;3.15;;;0.60;99.90;;;;;;4967306;28;20512;-72
2023/01/22 02:56:47;;;;;;;4.47;3.72;;;0.60;99.90;;;;;;4959978;28;20047;-73
2023/01/22 02:59:14;;;;;;;4.47;4.07;;;0.60;99.90;;;;;;4963643;28;20134;-69
2023/01/22 03:01:41;;;;;;;9.10;5.10;;;0.60;99.90;;;;;;4965446;28;20062;-68
2023/01/22 03:04:11;;;;;;;6.68;5.60;;;0.60;99.90;;;;;;4948413;28;20075;-71
2023/01/22 03:06:45;;;;;;;6.03;5.30;;;0.60;99.90;;;;;;4943225;28;20121;-68
2023/01/22 03:09:15;;;;;;;8.13;5.30;;;0.60;99.90;;;;;;4959882;28;20125;-73
2023/01/22 03:11:45;;;;;;;7.00;5.55;;;0.60;99.90;;;;;;4971054;28;20051;-68
2023/01/22 07:20:15;;;;;;;4.82;2.22;;;0.30;99.90;;;;;;4903239;29;20061;-69
2023/01/22 07:22:43;;;;;;;3.67;1.92;;;0.30;99.90;;;;;;4926937;28;21099;-72
2023/01/22 07:25:10;;;;;;;3.63;2.20;;;0.30;99.90;;;;;;4926531;29;20065;-71
2023/01/22 07:27:37;;;;;;;3.47;2.47;;;0.30;99.90;;;;;;4926598;29;20126;-70
2023/01/22 07:30:05;;;;;;;5.85;2.90;;;0.30;99.90;;;;;;4927528;29;20040;-66
2023/01/22 07:32:32;;;;;;;3.22;2.92;;;0.30;99.90;;;;;;4930086;29;20055;-69
2023/01/22 07:34:59;;;;;;;7.38;3.38;;;0.30;99.90;;;;;;4928427;29;20078;-68
2023/01/22 07:37:25;;;;;;;11.48;5.43;;;0.30;99.90;;;;;;4932550;29;20040;-68
2023/01/22 07:39:52;;;;;;;8.35;4.75;;;0.30;99.90;;;;;;4927959;29;20051;-68
2023/01/22 07:42:19;;;;;;;11.98;5.47;;;0.30;99.90;;;;;;4929835;29;20161;-68
2023/01/22 07:44:46;;;;;;;5.82;5.22;;;0.30;99.90;;;;;;4930231;29;20066;-67
2023/01/22 07:47:13;;;;;;;9.18;5.95;;;0.30;99.90;;;;;;4928989;29;20449;-70
2023/01/22 07:49:40;;;;;;;9.80;5.85;;;0.30;99.90;;;;;;4927338;29;20446;-67
2023/01/22 07:52:07;;;;;;;6.75;6.03;;;0.30;99.90;;;;;;4924586;29;20954;-68
2023/01/22 07:54:35;;;;;;;11.23;5.60;;;0.30;99.90;;;;;;4928893;29;20051;-74
2023/01/22 07:57:02;;;;;;;12.18;6.10;;;0.30;99.90;;;;;;4929458;29;20067;-69
2023/01/22 07:59:30;;;;;;;14.63;6.65;;;0.40;99.90;;;;;;4928522;29;20051;-66
2023/01/22 08:01:56;;;;;;;9.00;4.97;;;0.40;99.90;;;;;;4925414;29;20047;-68
2023/01/22 08:04:24;;;;;;;5.68;5.05;;;0.40;99.90;;;;;;4925624;29;20488;-68
2023/01/22 08:06:51;;;;;;;8.32;5.30;;;0.40;99.90;;;;;;4924055;29;20126;-69
2023/01/22 08:09:23;;;;;;;8.30;4.88;;;0.40;99.90;;;;;;4927160;29;20047;-67
2023/01/22 08:11:51;;;;;;;13.88;4.82;;;0.40;99.90;;;;;;4924642;29;20528;-72
2023/01/22 08:14:19;;;;;;;8.68;4.95;;;0.40;99.90;;;;;;4926643;29;20488;-66
2023/01/22 08:16:46;;;;;;;6.65;4.15;;;0.50;99.90;;;;;;4927955;29;20071;-66
2023/01/22 08:19:13;;;;;;;7.47;3.80;;;0.50;99.90;;;;;;4927909;29;20054;-71
2023/01/22 08:21:40;;;;;;;8.13;3.72;;;0.50;99.90;;;;;;4929603;29;20082;-65
2023/01/22 08:24:09;;;;;;;5.80;5.25;;;0.50;99.90;;;;;;4925915;29;20143;-70
2023/01/22 08:26:36;;;;;;;3.75;3.28;;;0.60;99.90;;;;;;4929166;29;20052;-68
2023/01/22 08:29:03;;;;;;;6.22;4.15;;;0.60;99.90;;;;;;4928748;29;20629;-69
2023/01/22 08:31:33;;;;;;;8.05;4.57;;;0.60;99.90;;;;;;4928264;29;20044;-71
2023/01/22 08:34:00;;;;;;;7.75;5.22;;;0.70;99.90;;;;;;4926542;29;20051;-68
2023/01/22 08:36:27;;;;;;;7.60;5.05;;;0.70;99.90;;;;;;4929069;29;20616;-67
2023/01/22 08:38:54;;;;;;;5.53;4.65;;;0.70;99.90;;;;;;4926644;29;20043;-68
2023/01/22 08:41:22;;;;;;;5.60;5.10;;;0.80;99.90;;;;;;4927657;29;20052;-70
2023/01/22 08:43:52;;;;;;;9.13;5.35;;;0.70;99.90;;;;;;4926493;29;20126;-66
2023/01/22 08:46:19;;;;;;;7.05;4.60;;;0.80;99.90;;;;;;4927795;29;20388;-69
2023/01/22 08:48:47;;;;;;;6.25;4.97;;;0.80;99.90;;;;;;4927466;29;20510;-68
2023/01/22 08:51:14;;;;;;;10.85;5.72;;;0.80;99.90;;;;;;4927435;29;20044;-68
2023/01/22 08:53:41;;;;;;;8.48;5.32;;;0.80;99.90;;;;;;4927809;29;20047;-66
2023/01/22 08:56:08;;;;;;;13.88;6.50;;;0.80;99.90;;;;;;4923393;29;20079;-68
2023/01/22 08:58:35;;;;;;;9.13;5.40;;;0.90;99.90;;;;;;4926803;29;20079;-70
2023/01/22 09:01:02;;;;;;;8.48;5.13;;;0.90;99.90;;;;;;4928719;29;20061;-68
2023/01/22 09:03:29;;;;;;;11.13;6.15;;;0.90;99.90;;;;;;4926901;29;20058;-67
2023/01/22 09:05:57;;;;;;;8.80;5.00;;;0.90;99.90;;;;;;4926656;29;20560;-71
2023/01/22 09:08:24;;;;;;;5.00;3.90;;;1.00;99.90;;;;;;4927244;29;20083;-71
2023/01/22 09:10:51;;;;;;;5.90;4.10;;;1.00;99.90;;;;;;4924640;29;20498;-70
2023/01/22 09:13:18;;;;;;;5.80;5.20;;;1.00;99.90;;;;;;4927452;29;20577;-68
2023/01/22 09:15:45;;;;;;;10.13;6.03;;;1.00;99.90;;;;;;4929065;29;20445;-65
2023/01/22 09:18:12;;;;;;;10.55;4.38;;;1.10;99.90;;;;;;4925200;29;20383;-68
2023/01/22 09:20:38;;;;;;;5.00;4.22;;;1.10;99.90;;;;;;4928958;29;20495;-65
2023/01/22 09:23:06;;;;;;;4.72;3.95;;;1.10;99.90;;;;;;4927398;29;20477;-65
2023/01/22 09:25:33;;;;;;;5.85;4.80;;;1.10;99.90;;;;;;4928719;29;20115;-67
2023/01/22 09:28:00;;;;;;;6.60;5.28;;;1.10;99.90;;;;;;4923712;29;20095;-66
2023/01/22 09:30:28;;;;;;;11.07;4.82;;;1.20;99.90;;;;;;4926479;29;20058;-66
2023/01/22 09:32:56;;;;;;;9.73;5.38;;;1.20;99.90;;;;;;4927942;29;20432;-67
2023/01/22 09:35:23;;;;;;;5.35;4.13;;;1.20;99.90;;;;;;4925528;28;20043;-62
2023/01/22 09:37:50;;;;;;;6.88;5.45;;;1.20;99.90;;;;;;4925183;29;20044;-63
2023/01/22 09:40:28;;;;;;;6.22;5.03;;;1.30;99.90;;;;;;4926757;29;20052;-67
2023/01/22 09:43:10;;;;;;;8.45;4.70;;;1.30;99.90;;;;;;4922765;29;20044;-65
2023/01/22 09:45:39;;;;;;;7.35;4.65;;;1.30;99.90;;;;;;4927229;29;20502;-69
2023/01/22 09:48:13;;;;;;;7.03;5.82;;;1.30;99.90;;;;;;4928269;29;23972;-64
2023/01/22 09:50:41;;;;;;;11.60;5.47;;;1.40;99.90;;;;;;4930838;29;20039;-66
2023/01/22 09:53:15;;;;;;;4.82;4.43;;;1.40;99.90;;;;;;4931216;29;20138;-64
2023/01/22 09:55:51;;;;;;;5.82;4.43;;;1.40;99.90;;;;;;4928176;29;20569;-66
2023/01/22 09:58:21;;;;;;;6.28;5.60;;;1.40;99.90;;;;;;4926741;29;20704;-65
2023/01/22 10:00:56;;;;;;;7.10;4.03;;;1.40;99.90;;;;;;4928486;29;20047;-69
2023/01/22 10:03:49;;;;;;;7.05;5.25;;;1.50;99.90;;;;;;4928287;29;20079;-65
2023/01/22 10:06:21;;;;;;;10.13;4.82;;;1.50;99.90;;;;;;4927068;29;20080;-63
2023/01/22 10:09:06;;;;;;;7.63;4.85;;;1.50;99.90;;;;;;4929137;29;20475;-68
2023/01/22 10:11:34;;;;;;;10.27;5.63;;;1.60;99.90;;;;;;4928711;29;20047;-67
2023/01/22 10:14:04;;;;;;;8.95;5.03;;;1.60;99.90;;;;;;4922686;29;20406;-67
2023/01/22 10:16:31;;;;;;;5.57;4.07;;;1.60;99.90;;;;;;4928647;29;20051;-64
2023/01/22 10:19:20;;;;;;;8.50;4.25;;;1.60;99.90;;;;;;4927333;29;20434;-61
2023/01/22 10:21:53;;;;;;;6.88;3.25;;;1.60;99.90;;;;;;4924381;29;20058;-66
2023/01/22 10:24:20;;;;;;;6.05;3.53;;;1.70;99.90;;;;;;4931853;29;20051;-68
2023/01/22 10:26:51;;;;;;;3.55;3.25;;;1.70;99.90;;;;;;4931540;29;20067;-66
2023/01/22 10:29:30;;;;;;;8.70;3.00;;;1.70;99.90;;;;;;4931400;29;20052;-65
2023/01/22 10:32:00;;;;;;;7.63;4.50;;;1.70;99.90;;;;;;4926065;29;20457;-65
2023/01/22 10:34:32;;;;;;;10.40;3.92;;;1.70;99.90;;;;;;4927952;29;20043;-65
2023/01/22 10:37:11;;;;;;;4.50;3.33;;;1.70;99.90;;;;;;4929435;29;20454;-71
2023/01/22 10:39:40;;;;;;;3.67;3.25;;;1.80;99.90;;;;;;4930193;29;20051;-66
2023/01/22 10:42:25;;;;;;;9.40;3.67;;;1.70;99.90;;;;;;4928493;28;20465;-65
2023/01/22 10:45:07;;;;;;;6.15;3.75;;;1.80;99.90;;;;;;4930141;29;20055;-65
2023/01/22 10:47:34;;;;;;;4.03;3.72;;;1.80;99.90;;;;;;4928067;29;20047;-65
2023/01/22 10:50:14;;;;;;;7.38;2.50;;;1.80;99.90;;;;;;4929225;29;20055;-66
2023/01/22 10:52:55;;;;;;;2.78;2.20;;;1.90;99.90;;;;;;4929228;29;20177;-65
2023/01/22 10:55:26;;;;;;;5.72;2.60;;;1.80;99.90;;;;;;4929900;29;20425;-66
2023/01/22 10:57:57;;;;;;;6.63;2.53;;;1.80;99.90;;;;;;4925267;29;20047;-66
2023/01/22 11:00:36;;;;;;;4.28;2.05;;;1.80;99.90;;;;;;4930121;29;20043;-64
2023/01/22 11:03:32;;;;;;;2.60;2.40;;;1.80;99.90;;;;;;4928191;29;20062;-68
2023/01/22 11:06:12;;;;;;;4.05;2.10;;;1.80;99.90;;;;;;4927302;29;20047;-64
2023/01/22 11:08:42;;;;;;;;;;;1.90;99.90;;;;;;4931522;29;20135;-67
2023/01/22 11:11:12;;;;;;;1.92;1.73;;;1.90;99.90;;;;;;4932243;29;19937;-67
2023/01/22 11:13:59;;;;;;;2.83;2.03;;;1.80;99.90;;;;;;4932162;29;20047;-65
2023/01/22 11:16:30;;;;;;;2.97;1.65;;;1.90;99.90;;;;;;4926762;29;20134;-64
2023/01/22 11:19:15;;;;;;;5.38;2.13;;;1.90;99.90;;;;;;4927416;29;20102;-67
2023/01/22 11:21:54;;;;;;;3.00;2.80;;;1.90;99.90;;;;;;4928003;29;20172;-65
2023/01/22 11:24:32;;;;;;;2.58;2.33;;;1.90;99.90;;;;;;4929084;28;20051;-68
2023/01/22 11:27:04;;;;;;;3.83;2.97;;;1.90;99.90;;;;;;4926946;29;20047;-64
2023/01/22 11:29:59;;;;;;;5.63;3.65;;;1.90;99.90;;;;;;4926765;29;20047;-68
2023/01/22 11:32:38;;;;;;;5.20;2.83;;;1.90;99.90;;;;;;4928811;29;20108;-64
2023/01/22 11:35:35;;;;;;;4.80;2.40;;;2.00;99.90;;;;;;4928388;29;20482;-64
2023/01/22 11:38:33;;;;;;;6.55;2.45;;;1.90;99.90;;;;;;4927027;29;20047;-65
2023/01/22 11:41:30;;;;;;;4.70;2.25;;;1.90;99.90;;;;;;4928862;29;20139;-68
2023/01/22 11:44:35;;;;;;;5.38;2.53;;;1.90;99.90;;;;;;4926835;29;20044;-64
2023/01/22 11:47:17;;;;;;;6.13;2.80;;;1.90;99.90;;;;;;4888830;29;20049;-69
2023/01/22 11:50:09;;;;;;;2.85;2.53;;;1.80;99.90;;;;;;4924387;29;20143;-65
2023/01/22 11:52:42;;;;;;;5.60;2.83;;;1.80;99.90;;;;;;4926259;29;20050;-68
2023/01/22 11:55:46;;;;;;;4.88;2.58;;;1.80;99.90;;;;;;4924994;29;20054;-64
2023/01/22 11:58:30;;;;;;;10.00;5.18;;;1.80;99.90;;;;;;4926199;29;20474;-64
2023/01/22 12:01:08;;;;;;;5.53;2.80;;;1.80;99.90;;;;;;4927341;29;20074;-65
2023/01/22 12:03:41;;;;;;;7.72;3.00;;;1.80;99.90;;;;;;4926979;29;20055;-64
2023/01/22 12:06:22;;;;;;;4.07;2.17;;;1.90;99.90;;;;;;4923948;29;20410;-64
2023/01/22 12:08:55;;;;;;;2.80;2.53;;;1.90;99.90;;;;;;4928921;29;20048;-65
2023/01/22 12:11:45;;;;;;;4.70;2.53;;;1.90;99.90;;;;;;4928777;29;20058;-64
2023/01/22 12:14:18;;;;;;;11.32;4.95;;;1.90;99.90;;;;;;4924948;29;20059;-64
2023/01/22 12:17:02;;;;;;;3.72;3.08;;;1.90;99.90;;;;;;4928967;29;20036;-64
2023/01/22 12:19:47;;;;;;;8.75;4.88;;;2.00;99.90;;;;;;4928289;29;20059;-63
2023/01/22 12:22:17;;;;;;;8.15;5.25;;;2.00;99.90;;;;;;4924836;29;20054;-67
2023/01/22 12:25:10;;;;;;;16.90;4.97;;;2.10;99.90;;;;;;4928666;29;20051;-65
2023/01/22 12:27:46;;;;;;;8.60;4.10;;;2.10;99.90;;;;;;4889277;29;20330;-65
2023/01/22 12:30:21;;;;;;;11.63;4.47;;;2.00;99.90;;;;;;4925219;29;20079;-68
2023/01/22 12:32:54;;;;;;;14.27;4.72;;;2.00;99.90;;;;;;4928604;29;20405;-68
2023/01/22 12:35:24;;;;;;;4.50;3.67;;;2.00;99.90;;;;;;4926798;29;20142;-64
2023/01/22 12:37:58;;;;;;;4.75;4.32;;;1.90;99.90;;;;;;4924594;29;20058;-68
2023/01/22 12:40:55;;;;;;;6.13;3.88;;;1.90;99.90;;;;;;4927588;29;20126;-64
2023/01/22 12:43:48;;;;;;;14.73;4.38;;;1.90;99.90;;;;;;4928000;29;20433;-67
2023/01/22 12:46:33;;;;;;;13.27;4.70;;;1.90;99.90;;;;;;4926605;29;20056;-68
2023/01/22 12:49:09;;;;;;;9.50;4.90;;;1.90;99.90;;;;;;4928556;29;20052;-65
2023/01/22 12:51:40;;;;;;;7.53;4.10;;;1.80;99.90;;;;;;4927904;29;20095;-65
2023/01/22 12:54:27;;;;;;;4.75;4.22;;;1.80;99.90;;;;;;4925728;29;20130;-64
2023/01/22 12:57:13;;;;;;;7.90;4.38;;;1.70;99.90;;;;;;4928167;29;20056;-67
2023/01/22 12:59:52;;;;;;;8.40;4.25;;;1.70;99.90;;;;;;4929376;28;21236;-64
2023/01/22 13:02:25;;;;;;;4.80;3.92;;;1.70;99.90;;;;;;4926457;29;20484;-64
2023/01/22 13:04:53;;;;;;;7.05;4.45;;;1.70;99.90;;;;;;4927925;29;20134;-65
2023/01/22 13:07:31;;;;;;;7.13;4.75;;;1.70;99.90;;;;;;4927235;29;20056;-66
2023/01/22 13:10:18;;;;;;;4.55;3.85;;;1.60;99.90;;;;;;4923142;29;20459;-67
2023/01/22 13:12:55;;;;;;;10.02;4.63;;;1.70;99.90;;;;;;4927588;29;20040;-64
2023/01/22 13:15:26;;;;;;;6.30;4.68;;;1.60;99.90;;;;;;4926680;29;20552;-66
2023/01/22 13:18:22;;;;;;;9.50;4.82;;;1.70;99.90;;;;;;4924017;29;20047;-67
2023/01/22 13:20:57;;;;;;;8.75;4.15;;;1.70;99.90;;;;;;4928298;29;20139;-67
2023/01/22 13:23:24;;;;;;;9.23;4.18;;;1.70;99.90;;;;;;4930836;29;20151;-64
2023/01/22 13:25:53;;;;;;;5.45;3.17;;;1.70;99.90;;;;;;4925142;29;20074;-64
2023/01/22 13:28:22;;;;;;;6.55;3.40;;;1.70;99.90;;;;;;4930430;29;20402;-67
2023/01/22 13:31:18;;;;;;;9.85;4.38;;;1.70;99.90;;;;;;4930853;29;20051;-65
2023/01/22 13:34:13;;;;;;;9.45;3.78;;;1.60;99.90;;;;;;4920460;29;20071;-64
2023/01/22 13:36:45;;;;;;;8.18;4.15;;;1.60;99.90;;;;;;4927443;29;20159;-69
2023/01/22 13:39:32;;;;;;;12.35;5.18;;;1.70;99.90;;;;;;4930405;29;20138;-68
2023/01/22 13:42:03;;;;;;;4.88;4.13;;;1.60;99.90;;;;;;4927987;29;20039;-65
2023/01/22 13:44:46;;;;;;;11.02;4.85;;;1.60;99.90;;;;;;4931025;29;20047;-65
2023/01/22 13:47:27;;;;;;;9.23;4.47;;;1.60;99.90;;;;;;4929320;29;20044;-67
2023/01/22 13:49:54;;;;;;;;;;;1.50;99.90;;;;;;4929666;29;20139;-69
2023/01/22 13:52:21;;;;;;;11.75;4.22;;;1.50;99.90;;;;;;4929765;29;19922;-64
2023/01/22 13:55:04;;;;;;;5.95;3.67;;;1.50;99.90;;;;;;4929821;29;20143;-65
2023/01/22 13:57:31;;;;;;;4.88;3.60;;;1.50;99.90;;;;;;4929464;29;20043;-65
2023/01/22 14:00:00;;;;;;;10.18;3.45;;;1.50;99.90;;;;;;4925961;29;20044;-64
2023/01/22 14:02:30;;;;;;;6.18;3.38;;;1.50;99.90;;;;;;4928326;29;20055;-64
2023/01/22 14:04:57;;;;;;;11.73;3.75;;;1.40;99.90;;;;;;4927738;29;20055;-66
2023/01/22 14:07:37;;;;;;;12.07;4.65;;;1.40;99.90;;;;;;4928968;29;20159;-64
2023/01/22 14:10:23;;;;;;;13.07;4.47;;;1.30;99.90;;;;;;4928758;29;20065;-64
2023/01/22 14:13:09;;;;;;;14.10;6.07;;;1.30;99.90;;;;;;4928166;29;20052;-65
2023/01/22 14:15:37;;;;;;;16.52;5.68;;;1.30;99.90;;;;;;4926879;29;20047;-64
2023/01/22 14:18:10;;;;;;;15.20;6.22;;;1.20;99.90;;;;;;4927930;29;20046;-66
2023/01/22 14:20:39;;;;;;;12.93;7.90;;;1.20;99.90;;;;;;4930371;29;20573;-64
2023/01/22 14:23:06;;;;;;;12.13;5.97;;;1.10;99.90;;;;;;4930267;29;20522;-64
2023/01/22 14:25:42;;;;;;;12.57;6.45;;;1.10;99.90;;;;;;4930071;29;20131;-64
2023/01/22 14:28:10;;;;;;;14.13;5.93;;;1.10;99.90;;;;;;4930482;29;20058;-67
2023/01/22 14:30:37;;;;;;;10.85;5.57;;;1.10;99.90;;;;;;4927600;29;20529;-65
2023/01/22 14:33:04;;;;;;;10.43;6.35;;;1.00;99.90;;;;;;4929830;29;20536;-65
2023/01/22 14:35:31;;;;;;;7.35;4.93;;;1.00;99.90;;;;;;4929915;29;20502;-65
2023/01/22 14:37:58;;;;;;;14.52;6.50;;;1.00;99.90;;;;;;4926892;29;20110;-69
2023/01/22 14:40:25;;;;;;;15.25;9.20;;;0.90;99.90;;;;;;4930336;29;20131;-66
2023/01/22 14:42:52;;;;;;;14.30;5.97;;;0.90;99.90;;;;;;4930931;29;20044;-66
2023/01/22 14:45:20;;;;;;;5.95;3.90;;;0.90;99.90;;;;;;4928429;29;20137;-71
2023/01/22 14:47:51;;;;;;;11.25;4.38;;;0.90;99.90;;;;;;4925882;29;20039;-65
2023/01/22 14:50:20;;;;;;;6.00;3.47;;;0.90;99.90;;;;;;4928573;29;20045;-66
2023/01/22 14:52:47;;;;;;;9.07;3.63;;;0.90;99.90;;;;;;4931277;29;20447;-66
2023/01/22 14:55:14;;;;;;;5.60;3.90;;;0.90;99.90;;;;;;4924271;29;20142;-65
2023/01/22 14:57:41;;;;;;;6.80;3.67;;;0.80;99.90;;;;;;4924538;28;20659;-66
2023/01/22 15:00:12;;;;;;;10.50;4.30;;;0.80;99.90;;;;;;4928135;29;20135;-65
2023/01/22 15:02:40;;;;;;;10.65;4.80;;;0.80;99.90;;;;;;4928551;29;20070;-65
2023/01/22 15:05:08;;;;;;;6.90;4.00;;;0.80;99.90;;;;;;4928952;29;20065;-65
2023/01/22 15:07:36;;;;;;;3.67;3.38;;;0.80;99.90;;;;;;4929096;29;20048;-67
2023/01/22 15:10:05;;;;;;;4.93;2.70;;;0.80;99.90;;;;;;4926279;29;20087;-66
2023/01/22 15:12:33;;;;;;;9.82;2.75;;;0.80;99.90;;;;;;4927054;29;20487;-67
2023/01/22 15:15:00;;;;;;;11.10;4.40;;;0.70;99.90;;;;;;4926566;29;20458;-65
2023/01/22 15:17:27;;;;;;;10.77;3.75;;;0.70;99.90;;;;;;4925161;28;20082;-65
2023/01/22 15:19:54;;;;;;;2.67;2.15;;;0.70;99.90;;;;;;4926256;29;20051;-65
2023/01/22 15:22:21;;;;;;;4.22;3.80;;;0.70;99.90;;;;;;4929221;29;20603;-63
2023/01/22 15:24:47;;;;;;;6.93;2.72;;;0.70;99.90;;;;;;4929883;29;20055;-65
2023/01/22 15:27:17;;;;;;;4.60;2.85;;;0.70;99.90;;;;;;4927457;29;20107;-66
2023/01/22 15:29:45;;;;;;;4.38;3.22;;;0.60;99.90;;;;;;4928644;29;20062;-65
2023/01/22 15:32:13;;;;;;;6.03;3.00;;;0.60;99.90;;;;;;4924943;29;20052;-66
2023/01/22 15:34:40;;;;;;;6.72;3.30;;;0.60;99.90;;;;;;4923403;28;20584;-65
2023/01/22 15:37:07;;;;;;;10.52;3.65;;;0.50;99.90;;;;;;4928220;29;20067;-63
2023/01/22 15:39:34;;;;;;;4.63;3.30;;;0.50;99.90;;;;;;4928315;29;20050;-64
2023/01/22 15:42:01;;;;;;;10.23;4.35;;;0.50;99.90;;;;;;4926422;29;20050;-66
2023/01/22 15:44:27;;;;;;;5.65;3.42;;;0.50;99.90;;;;;;4925787;29;20457;-65
2023/01/22 15:46:57;;;;;;;10.88;5.95;;;0.50;99.90;;;;;;4927592;29;20043;-64
2023/01/22 15:49:24;;;;;;;12.68;5.43;;;0.50;99.90;;;;;;4925012;29;20070;-64
2023/01/22 15:51:52;;;;;;;8.32;4.15;;;0.50;99.90;;;;;;4924220;29;20039;-64
2023/01/22 15:54:18;;;;;;;8.07;4.30;;;0.50;99.90;;;;;;4928842;29;20051;-65
2023/01/22 15:56:45;;;;;;;10.07;4.63;;;0.50;99.90;;;;;;4929330;29;20040;-65
2023/01/22 15:59:12;;;;;;;10.98;4.40;;;0.50;99.90;;;;;;4929307;29;20454;-64
2023/01/22 16:01:39;;;;;;;5.90;5.00;;;0.50;99.90;;;;;;4927198;28;20051;-65
2023/01/22 16:04:07;;;;;;;9.98;4.78;;;0.50;99.90;;;;;;4928051;29;20059;-65
2023/01/22 16:06:34;;;;;;;7.80;3.60;;;0.50;99.90;;;;;;4924529;29;20075;-64
2023/01/22 16:09:06;;;;;;;8.35;4.25;;;0.50;99.90;;;;;;4926491;28;20043;-68
2023/01/22 16:11:33;;;;;;;5.60;2.22;;;0.50;99.90;;;;;;4926122;29;20055;-65
2023/01/22 16:14:00;;;;;;;5.43;2.42;;;0.50;99.90;;;;;;4924621;29;20043;-66
2023/01/22 16:16:31;;;;;;;5.88;2.67;;;0.50;99.90;;;;;;4926097;29;20047;-65
2023/01/22 16:19:00;;;;;;;6.65;3.03;;;0.50;99.90;;;;;;4928037;29;20052;-68
2023/01/22 16:21:28;;;;;;;8.60;4.70;;;0.50;99.90;;;;;;4924102;29;20047;-66
2023/01/22 16:23:58;;;;;;;9.35;5.88;;;0.50;99.90;;;;;;4927311;29;20048;-65
2023/01/22 16:26:27;;;;;;;10.52;4.35;;;0.50;99.90;;;;;;4928592;29;20047;-64
2023/01/22 16:28:56;;;;;;;6.28;3.97;;;0.50;99.90;;;;;;4920552;29;20087;-65
2023/01/22 16:31:25;;;;;;;11.45;4.32;;;0.50;99.90;;;;;;4928139;29;20047;-64
2023/01/22 16:33:55;;;;;;;4.55;2.67;;;0.40;99.90;;;;;;4927010;29;20051;-66
2023/01/22 16:36:24;;;;;;;5.03;3.08;;;0.50;99.90;;;;;;4928627;29;20127;-68
2023/01/22 16:38:51;;;;;;;3.53;3.05;;;0.50;99.90;;;;;;4928896;29;20054;-65
2023/01/22 16:41:18;;;;;;;12.82;3.88;;;0.40;99.90;;;;;;4928098;29;20510;-66
2023/01/22 16:43:57;;;;;;;9.45;3.88;;;0.40;99.90;;;;;;4926436;29;20043;-64
2023/01/22 16:46:27;;;;;;;4.43;2.72;;;0.40;99.90;;;;;;4926287;29;20056;-66
2023/01/22 16:48:55;;;;;;;3.67;3.38;;;0.40;99.90;;;;;;4916151;29;20135;-67
2023/01/22 16:51:25;;;;;;;3.35;2.92;;;0.40;99.90;;;;;;4926088;29;20048;-65
2023/01/22 16:53:53;;;;;;;2.50;2.30;;;0.40;99.90;;;;;;4926876;29;20063;-67
2023/01/22 16:56:20;;;;;;;8.10;2.30;;;0.30;99.90;;;;;;4931475;29;20075;-69
2023/01/22 16:58:47;;;;;;;3.58;2.58;;;0.40;99.90;;;;;;4931126;29;20512;-65
2023/01/22 17:01:14;;;;;;;4.93;3.50;;;0.30;99.90;;;;;;4929997;29;20059;-64
2023/01/22 17:03:42;;;;;;;6.03;3.30;;;0.30;99.90;;;;;;4932819;29;20465;-69
2023/01/22 17:06:23;;;;;;;7.85;3.78;;;0.30;99.90;;;;;;4929346;29;20055;-65
2023/01/22 17:08:51;;;;;;;9.75;3.55;;;0.40;99.90;;;;;;4930399;29;20055;-65
2023/01/22 17:11:18;;;;;;;5.68;3.70;;;0.30;99.90;;;;;;4930546;29;20048;-66
2023/01/22 17:13:45;;;;;;;4.50;3.70;;;0.30;99.90;;;;;;4931166;29;20044;-64
2023/01/22 17:16:13;;;;;;;2.97;2.50;;;0.30;99.90;;;;;;4932366;29;20051;-65
2023/01/22 17:18:40;;;;;;;4.35;2.78;;;0.30;99.90;;;;;;4931768;29;20099;-68
2023/01/22 17:21:10;;;;;;;3.22;2.80;;;0.30;99.90;;;;;;4929621;29;20054;-65
2023/01/22 17:23:40;;;;;;;4.15;3.10;;;0.30;99.90;;;;;;4932027;29;20067;-65